Time;durP1;ratioP1;P1;durP2;ratioP2;P2;SDS_P1;SDS_P2;PMS_P1;PMS_P2;Temp;Humidity;BMP_temperature;BMP_pressure;BME280_temperature;BME280_humidity;BME280_pressure;Samples;Min_cycle;Max_cycle;Signal;HPM_P1;HPM_P2
2022/06/05 00:01:41;;;;;;;;;6.00;5.00;;;;;21.49;58.75;98793.09;5005370;27;103303;-65
2022/06/05 00:04:16;;;;;;;;;6.67;6.33;;;;;21.48;59.59;98796.97;4988735;27;104124;-65
2022/06/05 00:06:49;;;;;;;;;7.67;6.00;;;;;21.48;58.74;98780.47;4997369;27;104025;-65
2022/06/05 00:09:47;;;;;;;;;6.00;6.00;;;;;21.48;58.95;98785.97;5005739;27;103720;-65
2022/06/05 00:12:19;;;;;;;;;6.00;5.67;;;;;21.48;58.77;98780.47;4985870;27;102114;-65
2022/06/05 00:14:46;;;;;;;;;4.67;4.67;;;;;21.48;58.90;98794.22;5021780;27;104138;-64
2022/06/05 00:17:20;;;;;;;;;8.33;7.33;;;;;21.49;59.28;98779.34;5015887;27;102292;-65
2022/06/05 00:19:49;;;;;;;;;7.00;7.00;;;;;21.47;59.27;98787.06;5023980;27;102283;-65
2022/06/05 00:22:17;;;;;;;;;5.00;5.00;;;;;21.47;59.37;98787.06;5031682;27;102475;-65
2022/06/05 00:24:44;;;;;;;;;6.00;5.33;;;;;21.47;58.97;98795.31;5012686;27;103232;-65
2022/06/05 00:27:48;;;;;;;;;7.33;6.33;;;;;21.46;58.77;98796.41;5009262;27;102459;-65
2022/06/05 00:30:26;;;;;;;;;6.67;6.00;;;;;21.46;59.10;98793.66;5014282;27;102098;-65
2022/06/05 00:33:15;;;;;;;;;6.00;6.00;;;;;21.42;58.95;98781.53;5014650;27;102749;-65
2022/06/05 00:35:57;;;;;;;;;5.67;5.67;;;;;21.44;59.37;98793.06;4989781;27;109040;-65
2022/06/05 00:38:40;;;;;;;;;8.00;7.00;;;;;21.44;58.81;98784.81;4997484;27;102435;-63
2022/06/05 00:41:50;;;;;;;;;6.67;6.00;;;;;21.44;58.95;98795.81;4981471;27;102258;-65
2022/06/05 00:44:28;;;;;;;;;5.67;5.67;;;;;21.44;58.86;98785.66;4994640;27;103875;-65
2022/06/05 00:46:56;;;;;;;;;7.00;6.00;;;;;21.43;59.20;98773.00;4981013;27;108963;-65
2022/06/05 00:49:23;;;;;;;;;8.00;7.00;;;;;21.44;59.00;98776.56;4989994;27;102320;-65
2022/06/05 00:51:50;;;;;;;;;7.00;7.00;;;;;21.43;58.86;98777.69;5028553;27;102236;-65
2022/06/05 00:54:17;;;;;;;;;5.67;5.67;;;;;21.42;58.98;98784.28;5017398;27;102699;-65
2022/06/05 00:56:45;;;;;;;;;6.00;5.67;;;;;21.42;59.39;98790.59;5000598;27;104354;-65
2022/06/05 00:59:12;;;;;;;;;5.67;5.67;;;;;21.42;59.41;98801.59;5019473;27;103033;-65
2022/06/05 01:01:40;;;;;;;;;6.67;6.67;;;;;21.42;59.23;98800.78;4969204;27;102768;-65
2022/06/05 01:04:08;;;;;;;;;6.33;6.33;;;;;21.41;58.72;98790.88;4928580;27;103875;-65
2022/06/05 01:06:35;;;;;;;;;5.67;5.67;;;;;21.41;59.29;98794.44;4977734;28;104131;-65
2022/06/05 01:09:05;;;;;;;;;7.00;6.67;;;;;21.41;59.46;98785.34;5005489;27;102125;-65
2022/06/05 01:11:58;;;;;;;;;7.67;7.00;;;;;21.40;59.07;98780.94;4982209;27;103396;-65
2022/06/05 01:14:58;;;;;;;;;5.33;5.33;;;;;21.40;58.93;98789.19;4958736;27;103434;-65
2022/06/05 01:17:26;;;;;;;;;6.67;6.67;;;;;21.39;59.02;98788.38;4998506;27;108907;-64
2022/06/05 01:20:19;;;;;;;;;7.33;7.33;;;;;21.39;59.03;98784.81;4991942;27;104093;-62
2022/06/05 01:23:12;;;;;;;;;5.67;5.67;;;;;21.37;58.84;98787.81;4985476;27;105030;-64
2022/06/05 01:25:54;;;;;;;;;6.00;5.67;;;;;21.36;59.23;98777.91;5000714;27;104394;-65
2022/06/05 01:28:25;;;;;;;;;6.00;6.00;;;;;21.38;59.04;98774.91;5005181;27;104286;-65
2022/06/05 01:30:55;;;;;;;;;6.00;6.00;;;;;21.38;58.76;98777.66;4984266;27;102216;-65
2022/06/05 01:33:24;;;;;;;;;6.33;6.33;;;;;21.38;58.85;98785.91;5001212;27;102072;-65
2022/06/05 01:36:03;;;;;;;;;7.00;7.00;;;;;21.35;59.09;98776.25;5001118;27;105432;-65
2022/06/05 01:38:46;;;;;;;;;6.67;6.00;;;;;21.36;59.08;98781.50;4994145;28;108867;-65
2022/06/05 01:41:24;;;;;;;;;6.00;5.67;;;;;21.35;58.96;98782.56;4977380;28;102202;-65
2022/06/05 01:43:52;;;;;;;;;5.67;5.67;;;;;21.35;58.95;98781.75;4983264;27;102630;-65
2022/06/05 01:46:34;;;;;;;;;6.00;4.67;;;;;21.34;59.09;98780.91;4974029;28;102398;-65
2022/06/05 01:49:16;;;;;;;;;8.00;6.00;;;;;21.33;58.81;98784.78;5002650;27;108933;-65
2022/06/05 01:51:59;;;;;;;;;7.00;6.33;;;;;21.32;59.05;98788.63;5006882;27;102475;-64
2022/06/05 01:54:35;;;;;;;;;10.33;8.33;;;;;21.32;58.83;98788.63;5003279;27;102357;-64
2022/06/05 01:57:04;;;;;;;;;9.00;7.33;;;;;21.33;59.07;98790.28;4997866;28;102553;-65
2022/06/05 01:59:42;;;;;;;;;7.00;7.00;;;;;21.33;59.43;98793.03;5012108;27;108855;-65
2022/06/05 02:02:13;;;;;;;;;7.00;6.00;;;;;21.34;58.81;98796.63;5006891;27;102452;-65
2022/06/05 02:04:50;;;;;;;;;7.00;7.00;;;;;21.32;58.85;98791.38;5008222;28;102162;-64
2022/06/05 02:07:20;;;;;;;;;8.00;6.33;;;;;21.33;58.84;98793.03;4984948;27;102337;-65
2022/06/05 02:09:53;;;;;;;;;6.00;6.00;;;;;21.33;59.12;98784.78;5013083;27;105242;-65
2022/06/05 02:12:20;;;;;;;;;6.00;5.33;;;;;21.31;59.24;98786.97;5011752;27;102396;-65
2022/06/05 02:14:47;;;;;;;;;5.67;5.67;;;;;21.30;58.97;98795.47;5006688;27;102560;-65
2022/06/05 02:17:14;;;;;;;;;5.00;5.00;;;;;21.31;59.08;98795.22;5008994;27;102735;-64
2022/06/05 02:19:41;;;;;;;;;5.67;5.67;;;;;21.30;59.33;98796.28;5018435;27;104089;-65
2022/06/05 02:22:40;;;;;;;;;5.67;5.67;;;;;21.31;58.88;98797.97;4995546;27;102326;-64
2022/06/05 02:25:08;;;;;;;;;5.00;5.00;;;;;21.29;58.85;98791.91;5008994;27;110775;-65
2022/06/05 02:27:35;;;;;;;;;6.00;6.00;;;;;21.28;59.36;98790.25;5012363;27;102714;-64
2022/06/05 02:30:03;;;;;;;;;7.00;6.00;;;;;21.30;58.51;98788.03;5024995;27;104243;-65
2022/06/05 02:32:48;;;;;;;;;6.33;6.33;;;;;21.29;59.02;98799.34;5002032;28;102404;-65
2022/06/05 02:35:18;;;;;;;;;6.33;5.67;;;;;21.29;58.73;98791.91;5017719;27;102204;-64
2022/06/05 02:38:02;;;;;;;;;6.00;6.00;;;;;21.28;58.62;98798.50;5007704;27;104214;-64
2022/06/05 02:40:29;;;;;;;;;7.00;6.33;;;;;21.29;57.77;98816.66;5002008;27;108923;-65
2022/06/05 02:43:00;;;;;;;;;7.00;7.00;;;;;21.28;59.09;98804.00;5014891;27;102504;-65
2022/06/05 02:45:39;;;;;;;;;6.00;6.00;;;;;21.28;58.63;98804.00;5022554;27;109947;-65
2022/06/05 02:48:35;;;;;;;;;5.33;5.33;;;;;21.29;58.09;98816.66;5002052;27;102154;-65
2022/06/05 02:51:13;;;;;;;;;6.67;5.33;;;;;21.27;58.72;98824.34;5014235;27;109117;-65
2022/06/05 02:53:53;;;;;;;;;6.33;6.33;;;;;21.27;58.77;98807.84;4979990;28;102192;-65
2022/06/05 02:56:21;;;;;;;;;5.00;5.00;;;;;21.26;59.11;98808.94;5005796;27;102798;-64
2022/06/05 02:58:49;;;;;;;;;5.00;5.00;;;;;21.27;59.08;98810.59;5015369;27;102501;-64
2022/06/05 03:04:03;;;;;;;;;6.67;5.67;;;;;21.27;59.08;98816.09;5026680;27;102732;-65
2022/06/05 03:06:31;;;;;;;;;6.00;6.00;;;;;21.25;58.90;98807.25;5009069;27;102257;-65
2022/06/05 03:08:58;;;;;;;;;7.00;7.00;;;;;21.27;58.81;98807.84;5014032;27;102183;-65
2022/06/05 03:11:25;;;;;;;;;6.67;6.67;;;;;21.25;58.76;98815.50;5008419;27;104088;-65
2022/06/05 03:13:52;;;;;;;;;6.00;6.00;;;;;21.26;58.73;98811.69;5010153;27;102038;-64
2022/06/05 03:16:19;;;;;;;;;5.00;5.00;;;;;21.26;59.32;98808.94;5002713;27;102289;-65
2022/06/05 03:18:46;;;;;;;;;6.67;6.67;;;;;21.27;58.64;98801.50;5021848;27;102352;-65
2022/06/05 03:21:13;;;;;;;;;5.67;5.67;;;;;21.26;58.20;98805.34;5012919;27;104161;-64
2022/06/05 03:23:40;;;;;;;;;6.33;6.33;;;;;21.26;58.94;98811.69;5022377;27;102155;-65
2022/06/05 03:26:09;;;;;;;;;6.00;5.33;;;;;21.24;58.84;98816.63;5013834;27;102328;-65
2022/06/05 03:28:43;;;;;;;;;6.00;6.00;;;;;21.26;58.63;98821.84;5007727;27;102030;-65
2022/06/05 03:31:10;;;;;;;;;7.00;6.67;;;;;21.26;58.60;98814.44;5015966;27;104834;-64
2022/06/05 03:33:37;;;;;;;;;8.00;6.00;;;;;21.25;58.53;98818.25;5008465;27;102373;-64
2022/06/05 03:36:12;;;;;;;;;6.00;6.00;;;;;21.24;58.29;98819.38;5014847;27;102317;-65
2022/06/05 03:38:39;;;;;;;;;6.00;6.00;;;;;21.24;58.88;98830.38;5017192;27;102494;-65
2022/06/05 03:41:08;;;;;;;;;7.00;7.00;;;;;21.22;58.92;98824.31;5027321;27;104176;-65
2022/06/05 03:43:36;;;;;;;;;5.33;5.33;;;;;21.24;58.69;98815.78;5010603;27;102433;-64
2022/06/05 03:46:06;;;;;;;;;6.33;6.33;;;;;21.23;57.85;98825.13;5012706;27;102463;-65
2022/06/05 03:48:33;;;;;;;;;7.67;6.67;;;;;21.23;58.71;98828.72;5012662;27;102595;-65
2022/06/05 03:51:10;;;;;;;;;7.33;6.67;;;;;21.23;58.48;98828.72;5007843;27;109444;-64
2022/06/05 03:53:37;;;;;;;;;7.00;6.67;;;;;21.24;58.57;98830.38;5000771;27;102215;-65
2022/06/05 03:56:29;;;;;;;;;5.00;5.00;;;;;21.25;58.64;98842.22;5012748;27;102300;-65
2022/06/05 03:58:56;;;;;;;;;7.00;6.33;;;;;21.24;58.53;98841.38;5003687;27;103122;-64
2022/06/05 04:01:24;;;;;;;;;5.67;5.67;;;;;21.26;58.18;98843.84;5007873;27;104023;-65
2022/06/05 04:03:52;;;;;;;;;5.33;5.33;;;;;21.26;58.39;98844.69;5028152;27;103093;-65
2022/06/05 04:06:27;;;;;;;;;5.33;4.67;;;;;21.25;58.73;98845.78;5012377;27;104856;-65
2022/06/05 04:08:59;;;;;;;;;6.00;6.00;;;;;21.24;58.30;98844.13;5023501;27;105471;-65
2022/06/05 04:11:28;;;;;;;;;6.67;6.67;;;;;21.24;58.37;98862.56;5017644;27;104181;-64
2022/06/05 04:13:55;;;;;;;;;7.00;7.00;;;;;21.23;58.44;98856.22;5001261;27;101964;-65
2022/06/05 04:16:24;;;;;;;;;6.00;5.67;;;;;21.22;58.81;98860.06;5008702;27;102311;-65
2022/06/05 04:18:54;;;;;;;;;6.00;5.67;;;;;21.22;58.52;98862.81;5023268;27;102858;-65
2022/06/05 04:21:24;;;;;;;;;6.00;6.00;;;;;21.22;58.72;98857.31;5014566;27;104256;-65
2022/06/05 04:23:51;;;;;;;;;7.00;6.00;;;;;21.24;58.87;98857.06;5023186;27;102905;-65
2022/06/05 04:26:21;;;;;;;;;6.67;6.67;;;;;21.23;58.21;98860.88;4995062;27;102562;-65
2022/06/05 04:28:48;;;;;;;;;8.33;7.33;;;;;21.24;58.11;98866.13;5007400;27;103572;-64
2022/06/05 04:31:35;;;;;;;;;6.33;5.67;;;;;21.23;58.10;98867.22;5016778;27;104064;-65
2022/06/05 04:34:05;;;;;;;;;5.67;5.67;;;;;21.23;58.27;98861.72;5024284;27;103091;-65
2022/06/05 04:36:32;;;;;;;;;5.00;4.00;;;;;21.24;58.53;98857.88;5006748;28;102143;-65
2022/06/05 04:39:00;;;;;;;;;5.33;5.33;;;;;21.25;58.29;98859.53;5020945;27;103933;-64
2022/06/05 04:41:27;;;;;;;;;6.67;6.67;;;;;21.26;58.43;98857.59;5002572;27;104178;-65
2022/06/05 04:43:54;;;;;;;;;5.67;5.67;;;;;21.24;58.74;98863.38;5002153;27;102213;-65
2022/06/05 04:46:22;;;;;;;;;5.00;4.00;;;;;21.23;58.21;98856.22;5006428;27;104537;-65
2022/06/05 04:48:50;;;;;;;;;6.00;5.00;;;;;21.23;58.24;98847.13;4991824;27;102497;-65
2022/06/05 04:51:18;;;;;;;;;6.00;4.67;;;;;21.23;58.44;98845.22;4997513;27;104067;-65
2022/06/05 04:53:46;;;;;;;;;6.67;6.00;;;;;21.23;58.19;98850.72;5017730;27;102022;-65
2022/06/05 04:56:15;;;;;;;;;6.67;5.33;;;;;21.24;58.23;98857.88;5020253;27;102143;-65
2022/06/05 04:58:42;;;;;;;;;7.00;7.00;;;;;21.25;58.27;98859.53;4996661;27;102519;-65
2022/06/05 05:01:13;;;;;;;;;6.00;6.00;;;;;21.26;57.83;98858.44;5011402;27;104073;-64
2022/06/05 05:03:41;;;;;;;;;6.67;5.00;;;;;21.26;58.38;98855.69;5017295;27;103422;-65
2022/06/05 05:06:09;;;;;;;;;7.00;6.00;;;;;21.27;58.22;98851.84;5009840;27;102327;-65
2022/06/05 05:08:36;;;;;;;;;6.67;6.00;;;;;21.27;57.74;98848.25;5011881;27;102184;-65
2022/06/05 05:11:03;;;;;;;;;5.67;5.67;;;;;21.26;58.39;98847.44;5007195;27;109544;-65
2022/06/05 05:13:30;;;;;;;;;7.00;7.00;;;;;21.26;58.44;98849.34;5018929;27;102573;-65
2022/06/05 05:15:57;;;;;;;;;6.00;6.00;;;;;21.25;58.27;98855.97;5009320;27;102562;-65
2022/06/05 05:18:25;;;;;;;;;6.33;6.33;;;;;21.25;58.22;98862.28;5016322;27;102336;-65
2022/06/05 05:20:52;;;;;;;;;5.00;5.00;;;;;21.26;57.85;98857.59;5002022;27;104153;-65
2022/06/05 05:23:19;;;;;;;;;5.33;5.00;;;;;21.25;58.10;98859.53;5018771;27;102223;-65
2022/06/05 05:25:47;;;;;;;;;4.67;4.67;;;;;21.25;57.95;98858.72;5010928;27;102513;-65
2022/06/05 05:28:15;;;;;;;;;7.00;6.33;;;;;21.27;57.96;98867.53;5014359;27;103139;-65
2022/06/05 05:30:44;;;;;;;;;5.33;5.00;;;;;21.26;57.96;98872.19;5020470;27;104200;-64
2022/06/05 05:33:12;;;;;;;;;5.00;5.00;;;;;21.27;57.63;98882.09;5020840;27;102653;-65
2022/06/05 05:35:40;;;;;;;;;5.67;5.67;;;;;21.28;57.56;98870.03;4992563;27;102227;-64
2022/06/05 05:38:07;;;;;;;;;6.33;5.67;;;;;21.29;57.58;98876.34;5011638;27;102235;-64
2022/06/05 05:43:19;;;;;;;;;5.67;5.67;;;;;21.28;57.75;98869.19;5016535;27;102270;-65
2022/06/05 05:45:48;;;;;;;;;6.00;5.00;;;;;21.29;58.05;98859.84;5008773;27;102438;-65
2022/06/05 05:48:15;;;;;;;;;6.00;6.00;;;;;21.29;57.75;98863.44;5010144;27;102662;-65
2022/06/05 05:50:44;;;;;;;;;5.33;5.33;;;;;21.28;58.06;98858.19;5021274;27;104288;-65
2022/06/05 05:53:11;;;;;;;;;5.67;5.00;;;;;21.29;57.91;98859.84;5024998;27;102482;-64
2022/06/05 05:55:38;;;;;;;;;6.00;5.00;;;;;21.27;57.61;98857.34;5030574;27;102119;-64
2022/06/05 05:58:05;;;;;;;;;6.00;5.00;;;;;21.26;58.32;98844.69;5012253;27;102539;-65
2022/06/05 06:00:33;;;;;;;;;6.00;5.00;;;;;21.28;57.97;98853.50;5012464;27;104201;-65
2022/06/05 06:03:00;;;;;;;;;5.67;5.67;;;;;21.27;57.56;98851.84;5004014;27;102213;-65
2022/06/05 06:05:34;;;;;;;;;5.67;5.33;;;;;21.29;57.86;98859.84;5018733;27;102174;-65
2022/06/05 06:08:01;;;;;;;;;6.00;4.67;;;;;21.29;57.68;98855.19;5014567;27;102510;-65
2022/06/05 06:10:28;;;;;;;;;4.67;4.67;;;;;21.28;57.53;98856.25;5010323;27;104270;-65
2022/06/05 06:12:55;;;;;;;;;5.00;4.33;;;;;21.30;57.29;98854.06;5013147;27;103978;-65
2022/06/05 06:15:22;;;;;;;;;5.00;5.00;;;;;21.29;57.80;98852.44;5027336;27;102390;-64
2022/06/05 06:17:49;;;;;;;;;5.00;5.00;;;;;21.31;57.67;98852.16;5009318;27;102241;-64
2022/06/05 06:20:17;;;;;;;;;5.67;4.67;;;;;21.31;57.79;98850.22;5009806;27;104886;-64
2022/06/05 06:22:44;;;;;;;;;5.67;5.67;;;;;21.31;57.30;98843.88;5024503;27;102363;-64
2022/06/05 06:25:11;;;;;;;;;7.00;5.67;;;;;21.31;57.70;98838.38;5015167;27;102125;-64
2022/06/05 06:27:39;;;;;;;;;4.67;4.00;;;;;21.30;57.68;98836.72;5008380;27;102264;-64
2022/06/05 06:30:10;;;;;;;;;4.67;4.67;;;;;21.29;57.50;98844.19;5006270;27;108914;-62
2022/06/05 06:32:38;;;;;;;;;6.33;4.67;;;;;21.29;58.09;98841.44;5013695;27;102125;-64
2022/06/05 06:35:05;;;;;;;;;6.00;6.00;;;;;21.30;57.58;98840.31;4994141;27;103276;-65
2022/06/05 06:37:32;;;;;;;;;4.33;4.33;;;;;21.30;57.07;98832.06;5005861;27;102592;-64
2022/06/05 06:39:59;;;;;;;;;4.33;4.33;;;;;21.31;57.13;98835.63;5009556;27;104176;-65
2022/06/05 06:42:27;;;;;;;;;5.33;5.33;;;;;21.31;57.24;98839.22;4998386;27;102118;-64
2022/06/05 06:44:55;;;;;;;;;4.67;3.67;;;;;21.32;57.69;98824.38;5004575;27;102404;-64
2022/06/05 06:47:23;;;;;;;;;5.67;4.67;;;;;21.33;57.30;98826.03;5005802;27;102646;-64
2022/06/05 06:49:50;;;;;;;;;5.67;5.00;;;;;21.31;57.96;98825.47;5013137;27;104075;-64
2022/06/05 06:52:17;;;;;;;;;4.67;4.67;;;;;21.30;58.23;98829.31;5015060;27;103814;-64
2022/06/05 06:54:44;;;;;;;;;6.33;5.67;;;;;21.30;58.27;98822.97;5010497;27;101994;-64
2022/06/05 06:57:11;;;;;;;;;5.00;5.00;;;;;21.31;58.28;98830.13;5008117;27;102562;-64
2022/06/05 06:59:38;;;;;;;;;5.00;5.00;;;;;21.31;58.17;98824.63;5018806;27;104226;-64
2022/06/05 07:02:06;;;;;;;;;5.00;5.00;;;;;21.30;57.61;98829.31;5024253;27;102260;-65
2022/06/05 07:04:33;;;;;;;;;5.00;5.00;;;;;21.31;57.94;98830.97;5013548;27;102175;-64
2022/06/05 07:07:00;;;;;;;;;5.67;5.00;;;;;21.31;58.02;98830.97;5007891;27;102272;-65
2022/06/05 07:09:27;;;;;;;;;4.33;4.33;;;;;21.32;57.80;98831.81;5014654;27;104148;-64
2022/06/05 07:11:54;;;;;;;;;5.33;5.33;;;;;21.34;57.39;98835.13;5005451;27;102321;-64
2022/06/05 07:14:21;;;;;;;;;6.00;5.67;;;;;21.34;58.55;98838.69;5012016;27;102353;-65
2022/06/05 07:16:49;;;;;;;;;7.67;6.33;;;;;21.33;58.02;98837.03;5019634;27;102146;-64
2022/06/05 07:19:17;;;;;;;;;5.00;5.00;;;;;21.34;57.46;98829.63;5014755;27;106658;-64
2022/06/05 07:21:44;;;;;;;;;5.67;5.67;;;;;21.34;57.71;98841.44;5007122;27;102541;-64
2022/06/05 07:24:11;;;;;;;;;6.67;6.00;;;;;21.35;57.22;98834.00;5013682;27;103762;-64
2022/06/05 07:26:38;;;;;;;;;5.67;4.67;;;;;21.35;57.07;98837.59;4954439;27;102866;-64
2022/06/05 07:29:05;;;;;;;;;3.67;3.67;;;;;21.36;57.57;98844.75;5023568;27;104159;-64
2022/06/05 07:31:38;;;;;;;;;4.67;4.00;;;;;21.38;57.65;98840.91;5023822;27;102127;-64
2022/06/05 07:34:07;;;;;;;;;5.67;5.00;;;;;21.37;57.62;98845.59;5018176;27;102250;-64
2022/06/05 07:36:34;;;;;;;;;6.00;6.00;;;;;21.38;57.74;98843.69;5003766;27;102383;-64
2022/06/05 07:39:03;;;;;;;;;6.00;6.00;;;;;21.38;57.64;98838.16;5010466;27;104071;-64
2022/06/05 07:41:32;;;;;;;;;7.00;7.00;;;;;21.39;57.44;98845.34;5016028;27;102004;-64
2022/06/05 07:44:00;;;;;;;;;5.67;5.00;;;;;21.39;57.83;98845.34;5021068;27;102867;-64
2022/06/05 07:46:29;;;;;;;;;5.00;4.33;;;;;21.40;57.43;98852.47;5010416;27;102034;-64
2022/06/05 07:48:56;;;;;;;;;4.00;4.00;;;;;21.39;57.78;98846.13;5006711;27;104057;-64
2022/06/05 07:54:31;;;;;;;;;7.00;6.00;;;;;21.41;57.43;98845.88;5024983;27;102211;-65
2022/06/05 07:57:12;;;;;;;;;6.33;6.00;;;;;21.41;57.51;98837.63;5008835;27;103772;-64
2022/06/05 07:59:41;;;;;;;;;5.00;4.33;;;;;21.40;57.73;98844.22;5007213;27;109115;-64
2022/06/05 08:02:12;;;;;;;;;5.00;5.00;;;;;21.41;57.83;98848.63;5006624;27;102081;-64
2022/06/05 08:04:51;;;;;;;;;5.00;4.67;;;;;21.42;57.50;98842.03;5010777;27;102392;-64
2022/06/05 08:07:20;;;;;;;;;5.33;5.33;;;;;21.42;57.88;98853.06;5005056;27;102379;-64
2022/06/05 08:09:48;;;;;;;;;6.33;6.00;;;;;21.41;57.89;98834.88;5011614;27;104246;-64
2022/06/05 08:12:16;;;;;;;;;6.00;5.67;;;;;21.41;57.74;98835.72;5019512;27;102137;-64
2022/06/05 08:14:43;;;;;;;;;5.67;4.67;;;;;21.41;58.06;98841.22;5015121;27;102270;-63
2022/06/05 08:17:13;;;;;;;;;6.33;5.67;;;;;21.43;57.40;98843.72;5020817;27;102162;-64
2022/06/05 08:19:40;;;;;;;;;6.33;5.67;;;;;21.43;57.26;98838.22;5016932;27;109072;-64
2022/06/05 08:22:08;;;;;;;;;6.67;6.67;;;;;21.44;57.29;98834.34;5012525;27;102331;-64
2022/06/05 08:24:36;;;;;;;;;5.00;5.00;;;;;21.44;57.54;98834.34;4989214;27;102568;-64
2022/06/05 08:27:10;;;;;;;;;6.00;5.00;;;;;21.44;58.08;98834.34;5012068;27;102208;-64
2022/06/05 08:29:37;;;;;;;;;8.33;7.00;;;;;21.43;57.50;98828.03;5010988;27;104179;-64
2022/06/05 08:32:05;;;;;;;;;7.67;7.00;;;;;21.45;57.91;98847.00;5018828;27;102222;-64
2022/06/05 08:34:32;;;;;;;;;8.67;6.67;;;;;21.44;57.94;98834.34;5019240;27;102225;-64
2022/06/05 08:43:07;;;;;;;;;4.67;4.67;;;;;21.47;57.49;98820.06;5005438;27;102431;-64
2022/06/05 08:45:48;;;;;;;;;4.67;4.67;;;;;21.47;57.44;98828.31;5001784;27;102128;-64
2022/06/05 08:48:31;;;;;;;;;5.00;5.00;;;;;21.47;57.95;98836.59;5007591;27;102308;-63
2022/06/05 08:51:26;;;;;;;;;7.33;5.67;;;;;21.47;57.74;98822.81;5003204;27;104229;-64
2022/06/05 08:54:15;;;;;;;;;7.00;6.00;;;;;21.48;57.56;98827.25;5001846;27;105352;-64
2022/06/05 08:56:52;;;;;;;;;5.67;5.00;;;;;21.47;57.38;98828.31;5009775;27;102275;-64
2022/06/05 08:59:25;;;;;;;;;4.00;4.00;;;;;21.48;57.76;98830.00;5005259;27;102451;-64
2022/06/05 09:02:00;;;;;;;;;7.33;5.67;;;;;21.49;57.61;98823.38;5025091;27;104225;-64
2022/06/05 09:04:52;;;;;;;;;6.00;6.00;;;;;21.48;57.41;98822.53;4995511;27;102295;-64
2022/06/05 09:07:43;;;;;;;;;5.33;5.33;;;;;21.51;57.85;98812.94;5017730;27;103305;-68
2022/06/05 09:10:34;;;;;;;;;5.00;5.00;;;;;21.54;57.22;98820.66;5011650;27;102270;-69
2022/06/05 09:13:24;;;;;;;;;5.67;5.67;;;;;21.53;56.78;98819.00;5021315;27;109099;-69
2022/06/05 09:15:59;;;;;;;;;7.00;7.00;;;;;21.54;56.70;98815.97;5002109;27;102659;-69
2022/06/05 09:18:30;;;;;;;;;7.00;6.67;;;;;21.54;57.02;98820.66;5014890;27;102357;-69
2022/06/05 09:20:59;;;;;;;;;6.67;6.67;;;;;21.54;56.97;98820.66;5011905;27;103469;-69
2022/06/05 09:24:04;;;;;;;;;6.00;6.00;;;;;21.55;57.16;98825.06;5026778;27;104166;-69
2022/06/05 09:26:43;;;;;;;;;6.00;6.00;;;;;21.54;57.21;98817.91;5005525;27;102317;-69
2022/06/05 09:29:28;;;;;;;;;7.33;7.33;;;;;21.55;56.99;98822.31;5009651;27;102206;-69
2022/06/05 09:31:55;;;;;;;;;6.67;6.67;;;;;21.54;56.99;98818.72;5013443;27;103257;-69
2022/06/05 09:34:33;;;;;;;;;6.00;6.00;;;;;21.55;57.07;98825.06;5010580;27;104132;-69
2022/06/05 09:37:19;;;;;;;;;5.33;5.33;;;;;21.55;56.78;98833.31;5003057;27;104117;-69
2022/06/05 09:39:53;;;;;;;;;8.00;7.00;;;;;21.54;56.95;98829.75;5021004;27;102279;-69
2022/06/05 09:42:33;;;;;;;;;7.33;6.67;;;;;21.55;56.97;98825.06;4996405;27;102212;-69
2022/06/05 09:45:06;;;;;;;;;8.00;7.33;;;;;21.55;57.36;98828.66;5015262;27;104062;-69
2022/06/05 09:47:46;;;;;;;;;5.33;4.67;;;;;21.56;57.21;98821.22;4996909;27;102421;-69
2022/06/05 09:50:21;;;;;;;;;6.33;6.33;;;;;21.57;56.89;98820.13;4993864;27;102261;-69
2022/06/05 09:52:49;;;;;;;;;5.67;5.67;;;;;21.56;56.87;98821.22;4992086;27;102483;-69
2022/06/05 09:55:39;;;;;;;;;8.00;7.00;;;;;21.56;56.83;98810.22;5008429;27;104077;-69
2022/06/05 09:58:44;;;;;;;;;6.67;6.67;;;;;21.57;56.96;98820.94;5011137;27;102379;-69
2022/06/05 10:01:23;;;;;;;;;5.67;5.33;;;;;21.57;57.18;98820.94;5025515;27;102246;-69
2022/06/05 10:03:50;;;;;;;;;6.00;6.00;;;;;21.58;56.97;98816.28;5012797;27;102537;-67
2022/06/05 10:06:38;;;;;;;;;6.00;6.00;;;;;21.57;57.20;98817.38;5014366;27;104057;-68
2022/06/05 10:09:13;;;;;;;;;6.00;6.00;;;;;21.59;57.25;98820.69;5014623;27;102414;-69
2022/06/05 10:11:57;;;;;;;;;6.00;6.00;;;;;21.59;56.89;98815.19;5012502;27;102350;-69
2022/06/05 10:14:42;;;;;;;;;9.00;8.00;;;;;21.61;56.67;98813.00;5031349;27;102578;-69
2022/06/05 10:17:31;;;;;;;;;9.00;8.00;;;;;21.60;57.13;98812.16;5015506;27;106339;-69
2022/06/05 10:20:15;;;;;;;;;8.33;7.00;;;;;21.62;56.84;98814.63;5023587;27;102222;-69
2022/06/05 10:22:44;;;;;;;;;6.33;5.67;;;;;21.63;56.78;98816.28;4997216;28;102243;-68
2022/06/05 10:25:27;;;;;;;;;6.67;6.33;;;;;21.64;56.59;98807.78;5017043;27;102120;-69
2022/06/05 10:27:56;;;;;;;;;6.33;6.33;;;;;21.65;56.59;98803.13;5005354;27;108841;-69
2022/06/05 10:30:26;;;;;;;;;6.00;6.00;;;;;21.65;56.30;98803.13;5005229;27;102533;-69
2022/06/05 10:33:01;;;;;;;;;6.67;6.67;;;;;21.66;56.76;98796.50;5000548;27;102261;-69
2022/06/05 10:35:34;;;;;;;;;7.00;7.00;;;;;21.68;56.18;98802.56;5032147;27;102494;-69
2022/06/05 10:38:16;;;;;;;;;6.33;5.67;;;;;21.67;56.61;98785.22;5008145;27;104208;-69
2022/06/05 10:40:46;;;;;;;;;6.67;6.67;;;;;21.68;56.69;98797.91;4998742;27;102952;-69
2022/06/05 10:43:22;;;;;;;;;6.33;6.33;;;;;21.69;56.26;98784.97;5011454;27;102264;-69
2022/06/05 10:46:06;;;;;;;;;6.33;5.33;;;;;21.69;56.81;98788.53;5011728;27;102231;-69
2022/06/05 10:49:03;;;;;;;;;5.33;5.33;;;;;21.70;56.46;98787.44;5006446;27;104098;-69
2022/06/05 10:51:58;;;;;;;;;6.67;6.67;;;;;21.71;56.43;98785.50;5019511;27;103295;-69
2022/06/05 10:54:55;;;;;;;;;5.33;5.33;;;;;21.72;56.44;98788.00;5025037;27;102953;-69
2022/06/05 10:57:36;;;;;;;;;6.00;6.00;;;;;21.73;56.61;98797.09;4972224;27;102286;-68
2022/06/05 11:00:15;;;;;;;;;5.67;5.00;;;;;21.76;56.40;98782.78;4992214;27;104212;-69
2022/06/05 11:03:02;;;;;;;;;4.67;4.67;;;;;21.76;56.56;98786.38;5012073;27;102886;-68
2022/06/05 11:05:43;;;;;;;;;6.33;6.00;;;;;21.80;56.38;98784.72;4995259;27;102374;-68
2022/06/05 11:08:46;;;;;;;;;7.00;7.00;;;;;21.87;55.58;98770.72;4989585;27;104273;-68
2022/06/05 11:14:46;;;;;;;;;8.33;7.67;;;;;22.01;54.57;98777.41;5012143;27;102238;-69
2022/06/05 11:17:35;;;;;;;;;8.00;8.00;;;;;22.10;53.76;98766.69;5005129;27;102374;-71
2022/06/05 11:20:16;;;;;;;;;9.33;8.00;;;;;22.13;53.67;98766.97;5013234;27;102869;-70
2022/06/05 11:23:04;;;;;;;;;8.33;8.00;;;;;22.19;52.99;98773.34;5010500;27;104339;-70
2022/06/05 11:25:36;;;;;;;;;10.33;10.00;;;;;22.20;52.24;98772.22;5005707;27;102242;-70
2022/06/05 11:28:38;;;;;;;;;10.33;10.00;;;;;22.21;51.28;98774.69;5010708;27;102203;-70
2022/06/05 11:31:29;;;;;;;;;11.33;11.00;;;;;22.24;51.31;98765.09;5008685;27;103536;-69
2022/06/05 11:34:18;;;;;;;;;10.33;10.33;;;;;22.30;51.28;98757.63;5010361;27;108877;-70
2022/06/05 11:36:50;;;;;;;;;9.67;9.67;;;;;22.36;52.38;98754.63;5004808;28;102866;-71
2022/06/05 11:39:23;;;;;;;;;10.67;10.67;;;;;22.36;52.29;98765.66;5010561;27;102370;-71
2022/06/05 11:42:11;;;;;;;;;11.33;11.33;;;;;22.36;52.58;98751.03;5003611;27;105537;-69
2022/06/05 11:45:03;;;;;;;;;11.00;11.00;;;;;22.39;52.09;98761.50;5010359;27;104345;-71
2022/06/05 11:47:38;;;;;;;;;11.33;10.33;;;;;22.42;52.38;98748.03;5021237;27;104102;-71
2022/06/05 11:50:26;;;;;;;;;10.67;9.00;;;;;22.47;52.22;98750.75;4996006;27;103823;-71
2022/06/05 11:53:16;;;;;;;;;8.00;7.00;;;;;22.51;51.88;98751.06;5006983;27;102166;-71
2022/06/05 11:55:49;;;;;;;;;9.33;9.00;;;;;22.53;50.55;98749.69;5005987;27;104036;-71
2022/06/05 11:58:43;;;;;;;;;10.33;9.67;;;;;22.54;49.54;98745.81;4999777;27;102178;-71
2022/06/05 12:01:23;;;;;;;;;13.00;12.67;;;;;22.53;49.48;98744.16;5013839;27;102353;-70
2022/06/05 12:04:11;;;;;;;;;9.00;8.67;;;;;22.55;48.71;98746.66;5004216;27;103978;-67
2022/06/05 12:06:42;;;;;;;;;10.33;9.33;;;;;22.56;48.31;98742.81;5010657;27;104241;-71
2022/06/05 12:09:17;;;;;;;;;9.00;9.00;;;;;22.54;48.25;98740.31;5008590;27;102078;-70
2022/06/05 12:12:06;;;;;;;;;9.67;9.33;;;;;22.53;48.64;98737.81;5010783;27;102491;-70
2022/06/05 12:14:50;;;;;;;;;11.00;9.67;;;;;22.52;49.49;98737.00;5011564;27;102161;-70